Asbury, Missouri
Current Conditions -  °F | °C
As of 2:53 PM on Friday 19 Dec 2014 (Local Time) from KJLN Reporting Station
Haze Haze  
Wind Chill:   Ceiling: 200
Heat Index:   Visibility: 0.75mi
Dew Point:   Wind: 3mph
Humidity: 96%   Direction: 350°N
Pressure: 30.19"   Gusts: NA
Location:  37.27°N, 94.61°W
Report Text: KJLN 192053Z 35003KT 3/4SM BR OVC002 04/03 A3019 RMK AO2 SLP227 T00390033 56012
Loading
Personal Weather Stations






























Interactive Weather Map New forecast layout! Learn more

10-Day Weather Forecast

Advertisements
Track Severe Weather on mobile